Nathaniel B. Palmer — WBP3210 — position and weather

sailwx.info

Track history (hours):
 
Tides and Currents Weather Stations Pressure Air Temp Water Temp Dewpoint Dewpoint Depression Visibility Wind Speed Wind Dir Waves Ship Positions

Oceanographic research ship Nathaniel B. Palmer (USA)

Contact: Ethan Norris, ethan.norris.contractor@usap.gov

Detailed information on ship capabilities available from University of Delaware's Ocean Information Center and ARCUS's ALIAS (Arctic Logistics Information and Support) project.

Owner: OFFSHORE SERVICE VESSELS, GALLIANO, LA. More information available from US FCC via Universal Licensing System and Coast Guard Vessel Documentation Center.

Last reported at 2015-May-25 18:00 UTC. Time now 2015-May-25 19:19 UTC.
Position S 49°12' W 088°48'.

Type: Other ship. MMSI: 366610000.

Wind from 320 at 27 knots

Barometer 996.1 mb
Air temperature 8.2 ° C
Water temperature 8.0 ° C

Date/timePositionNaut miles runAvg speedWind from/ knotsBaromVisibWave heightAir tempDewpointWater temp
2015-May-25 18:00S 49°12' W 088°48'20 9.9 320 / 27996.1 8.2 8.0
2015-May-25 16:00S 49°24' W 089°12'20 9.8 340 / 27994.9 7.7 7.8
2015-May-25 14:00S 49°36' W 089°36'2411.9 340 / 26994.3 7.7 7.5
2015-May-25 12:00S 49°54' W 090°00'20 9.8 350 / 20994.6 7.9 7.2
2015-May-25 10:00S 50°06' W 090°24'19 9.7 350 / 21994.5 7.9 7.2
2015-May-25 08:00S 50°18' W 090°48'39 9.7 010 / 17996.2 8.0 7.3
2015-May-25 04:00S 50°42' W 091°36'19 9.7 050 / 19999.8 7.8 7.5
2015-May-25 02:00S 50°54' W 092°00'2311.7 060 / 141002.1 7.2 7.4
2015-May-25 00:00S 51°12' W 092°24'19 9.6 050 / 51003.5 6.3 7.0
2015-May-24 22:00S 51°24' W 092°48'19 9.6 320 / 51004.8 6.0 7.1
2015-May-24 20:00S 51°36' W 093°12'19 9.6 280 / 111005.3 5.9 7.1
2015-May-24 18:00S 51°48' W 093°36'19 9.5 290 / 121005.9 5.9 6.9
2015-May-24 16:00S 52°00' W 094°00'2211.0 290 / 131005.8 5.9 6.6
2015-May-24 14:00S 52°12' W 094°30'19 9.5 280 / 151005.4 6.0 6.6
2015-May-24 12:00S 52°24' W 094°54'19 9.5 280 / 161004.7 6.2 6.7
2015-May-24 10:00S 52°36' W 095°18'2210.9 280 / 151004.6 6.4 6.9
2015-May-24 08:00S 52°48' W 095°48'4010.1 280 / 161004.3 6.5 6.8
2015-May-24 04:00S 53°12' W 096°42'2210.8 320 / 131003.7 6.4 6.7
2015-May-24 02:00S 53°24' W 097°12'2210.8 310 / 131003.9 6.4 6.7
2015-May-24 00:00S 53°36' W 097°42'19 9.3 310 / 131004.0 6.5 6.8
2015-May-23 22:00S 53°48' W 098°06'2110.7 340 / 121004.1 6.5 6.6
2015-May-23 20:00S 54°00' W 098°36'2110.6 350 / 151004.6 6.5 6.7
2015-May-23 18:00S 54°12' W 099°06'18 9.2 360 / 151006.0 6.4 6.2
2015-May-23 16:00S 54°24' W 099°30'2110.6 010 / 141007.3 6.2 6.1
2015-May-23 14:00S 54°36' W 100°00'2110.5 360 / 151008.2 6.0 6.1
2015-May-23 12:00S 54°48' W 100°30'2110.5 350 / 161009.3 5.8 5.5
2015-May-23 10:00S 55°00' W 101°00'2411.9 340 / 161010.8 5.8 5.6
2015-May-23 08:00S 55°12' W 101°36'4210.4 330 / 201011.6 5.8 6.3
2015-May-23 04:00S 55°36' W 102°36'18 9.0 320 / 201012.8 5.7 6.0
2015-May-23 02:00S 55°42' W 103°06'4411.0 320 / 231013.2 5.5 5.4
2015-May-22 22:00S 56°06' W 104°12'2110.3 330 / 251012.6 5.7 5.3
2015-May-22 20:00S 56°18' W 104°42'18 8.8 340 / 261012.4 5.5 5.6
2015-May-22 18:00S 56°24' W 105°12'2010.2 350 / 261012.9 4.9 6.0
2015-May-22 16:00S 56°36' W 105°42'18 8.8 360 / 251013.2 4.2 6.0
2015-May-22 14:00S 56°42' W 106°12'4310.8 360 / 251013.5 4.5 5.8
2015-May-22 10:00S 57°06' W 107°18'2010.2 360 / 231014.8 2.9 4.7
2015-May-22 08:00S 57°12' W 107°54'32710.2 360 / 221014.9 2.4 4.9
2015-May-21 00:00S 59°24' W 117°24'19 9.6 140 / 141009.6 0.1 3.3
2015-May-20 22:00S 59°30' W 118°00'2211.1 140 / 161008.9 0.2 3.2
2015-May-20 20:00S 59°36' W 118°42'19 9.6 150 / 161008.9 -0.2 1.7
2015-May-20 18:00S 59°42' W 119°18'2211.0 150 / 171008.6 -0.3 1.4
2015-May-20 16:00S 59°48' W 120°00'2211.0 160 / 201007.7 0.4 1.2
2015-May-20 14:00S 59°54' W 120°42'2210.9 170 / 181007.1 0.9 2.2
2015-May-20 12:00S 60°00' W 121°24'2210.9 220 / 141007.2 2.4 2.5
2015-May-20 10:00S 60°06' W 122°06'2210.9 270 / 141007.2 3.3 3.2
2015-May-20 08:00S 60°12' W 122°48'4310.8 280 / 161007.6 3.1 3.0
2015-May-20 04:00S 60°24' W 124°12'18 8.9 300 / 201008.9 2.7 3.2
2015-May-20 02:00S 60°24' W 124°48'2210.8 300 / 211010.2 2.4 3.1
2015-May-20 00:00S 60°30' W 125°30'2210.8 310 / 191011.1 1.8 2.1
2015-May-19 22:00S 60°36' W 126°12'2110.3 300 / 211011.9 1.7 1.1
2015-May-19 20:00S 60°36' W 126°54'2110.7 310 / 181012.5 1.3 1.2
2015-May-19 18:00S 60°42' W 127°36'2110.7 310 / 191013.2 1.0 1.1
2015-May-19 16:00S 60°48' W 128°18'2010.2 310 / 191013.9 0.5 1.1
2015-May-19 14:00S 60°48' W 129°00'2110.7 310 / 231014.6 0.2 1.0
2015-May-19 12:00S 60°54' W 129°42'2010.2 310 / 231014.8 0.7 0.9
2015-May-19 10:00S 60°54' W 130°24'2110.6 310 / 251014.7 1.0 0.7
2015-May-19 08:00S 61°00' W 131°06'4110.3 310 / 281014.6 1.4 0.6
2015-May-19 04:00S 61°06' W 132°30'2311.6 320 / 261014.5 1.2 0.9
2015-May-19 02:00S 61°06' W 133°18'2010.1 320 / 251014.3 1.7 0.8
2015-May-19 00:00S 61°06' W 134°00'2110.6 320 / 271014.1 1.3 0.9
2015-May-18 22:00S 61°12' W 134°42'2010.1 320 / 251013.8 1.1 0.9
2015-May-18 20:00S 61°12' W 135°24'2010.1 320 / 241013.1 0.9 0.5
2015-May-18 18:00S 61°12' W 136°06'2010.1 330 / 201012.7 0.8 0.1
2015-May-18 16:00S 61°12' W 136°48'2311.6 350 / 161012.3 0.5 0.6
2015-May-18 14:00S 61°12' W 137°36'2010.1 330 / 141013.0 0.5 0.5
2015-May-18 12:00S 61°12' W 138°18'4010.1 310 / 141012.8 0.2 0.1
2015-May-18 08:00S 61°12' W 139°42'4010.1 290 / 191010.0 0.9 0.2
2015-May-18 04:00S 61°12' W 141°06'2010.1 290 / 221005.4 2.0 0.3
2015-May-18 02:00S 61°12' W 141°48'2311.6 290 / 231003.0 2.6 0.2
2015-May-18 00:00S 61°12' W 142°36'17 8.7 300 / 251000.4 1.7 0.2
2015-May-17 22:00S 61°12' W 143°12'2010.1 310 / 24998.9 0.8 0.4
2015-May-17 20:00S 61°12' W 143°54'2110.6 320 / 22998.1 0.6 0.4
2015-May-17 18:00S 61°06' W 144°36'2010.1 320 / 21997.6 0.5 0.4
2015-May-17 16:00S 61°06' W 145°18'2010.1 320 / 20996.9 0.2 0.3
2015-May-17 14:00S 61°06' W 146°00'2110.6 310 / 21996.4 0.9 0.3
2015-May-17 12:00S 61°00' W 146°42'2010.2 300 / 22995.0 1.3 0.3
2015-May-17 10:00S 61°00' W 147°24'2010.2 310 / 25993.9 1.0 0.3
2015-May-17 08:00S 61°00' W 148°06'38 9.6 320 / 26992.4 1.2 0.3
2015-May-17 04:00S 60°54' W 149°24'2110.7 330 / 31990.0 2.0 0.4
2015-May-17 02:00S 60°48' W 150°06'18 8.8 340 / 32988.4 2.3 0.2
2015-May-17 00:00S 60°48' W 150°42'2110.7 350 / 31988.2 2.0 0.5
2015-May-16 22:00S 60°42' W 151°24'18 8.8 340 / 31989.1 1.9 0.7
2015-May-16 20:00S 60°42' W 152°00'2110.7 350 / 28989.9 2.0 0.6
2015-May-16 18:00S 60°36' W 152°42'2210.8 350 / 28991.0 2.0 0.1
2015-May-16 16:00S 60°30' W 153°24'2210.8 350 / 27991.6 2.1 0.4
2015-May-16 14:00S 60°24' W 154°06'18 8.9 350 / 24992.8 1.5 0.4
2015-May-16 12:00S 60°24' W 154°42'2210.8 350 / 22993.6 1.8 0.3
2015-May-16 10:00S 60°18' W 155°24'2210.8 350 / 21994.4 1.7 0.3
2015-May-16 08:00S 60°12' W 156°06'4110.2 020 / 19994.3 1.1 0.2
2015-May-16 04:00S 60°00' W 157°24'2210.9 050 / 18996.1 1.1 0.8
2015-May-16 02:00S 59°54' W 158°06'16 8.1 060 / 13997.7 1.3 1.1
2015-May-16 00:00S 59°48' W 158°36'18 9.1 030 / 10999.8 1.7 1.4
2015-May-15 22:00S 59°48' W 159°12'2210.9 360 / 121000.5 1.5 1.4
2015-May-15 20:00S 59°36' W 159°48'2211.1 340 / 151001.9 1.6 1.8
2015-May-15 18:00S 59°30' W 160°30'   330 / 141002.9 2.7 1.8
Track history (hours):
 
Tides and Currents Weather Stations Pressure Air Temp Water Temp Dewpoint Dewpoint Depression Visibility Wind Speed Wind Dir Waves Ship Positions

Oceanographic research ship Nathaniel B. Palmer (USA)

Contact: Ethan Norris, ethan.norris.contractor@usap.gov

Detailed information on ship capabilities available from University of Delaware's Ocean Information Center and ARCUS's ALIAS (Arctic Logistics Information and Support) project.

Owner: OFFSHORE SERVICE VESSELS, GALLIANO, LA. More information available from US FCC via Universal Licensing System and Coast Guard Vessel Documentation Center.

Last reported at 2015-May-25 18:00 UTC. Time now 2015-May-25 19:19 UTC.
Position S 49°12' W 088°48'.

Type: Other ship. MMSI: 366610000.

Wind from 320 at 27 knots

Barometer 996.1 mb
Air temperature 8.2 ° C
Water temperature 8.0 ° C

Date/timePositionNaut miles runAvg speedWind from/ knotsBaromVisibWave heightAir tempDewpointWater temp
2015-May-25 18:00S 49°12' W 088°48'20 9.9 320 / 27996.1 8.2 8.0
2015-May-25 16:00S 49°24' W 089°12'20 9.8 340 / 27994.9 7.7 7.8
2015-May-25 14:00S 49°36' W 089°36'2411.9 340 / 26994.3 7.7 7.5
2015-May-25 12:00S 49°54' W 090°00'20 9.8 350 / 20994.6 7.9 7.2
2015-May-25 10:00S 50°06' W 090°24'19 9.7 350 / 21994.5 7.9 7.2
2015-May-25 08:00S 50°18' W 090°48'39 9.7 010 / 17996.2 8.0 7.3
2015-May-25 04:00S 50°42' W 091°36'19 9.7 050 / 19999.8 7.8 7.5
2015-May-25 02:00S 50°54' W 092°00'2311.7 060 / 141002.1 7.2 7.4
2015-May-25 00:00S 51°12' W 092°24'19 9.6 050 / 51003.5 6.3 7.0
2015-May-24 22:00S 51°24' W 092°48'19 9.6 320 / 51004.8 6.0 7.1
2015-May-24 20:00S 51°36' W 093°12'19 9.6 280 / 111005.3 5.9 7.1
2015-May-24 18:00S 51°48' W 093°36'19 9.5 290 / 121005.9 5.9 6.9
2015-May-24 16:00S 52°00' W 094°00'2211.0 290 / 131005.8 5.9 6.6
2015-May-24 14:00S 52°12' W 094°30'19 9.5 280 / 151005.4 6.0 6.6
2015-May-24 12:00S 52°24' W 094°54'19 9.5 280 / 161004.7 6.2 6.7
2015-May-24 10:00S 52°36' W 095°18'2210.9 280 / 151004.6 6.4 6.9
2015-May-24 08:00S 52°48' W 095°48'4010.1 280 / 161004.3 6.5 6.8
2015-May-24 04:00S 53°12' W 096°42'2210.8 320 / 131003.7 6.4 6.7
2015-May-24 02:00S 53°24' W 097°12'2210.8 310 / 131003.9 6.4 6.7
2015-May-24 00:00S 53°36' W 097°42'19 9.3 310 / 131004.0 6.5 6.8
2015-May-23 22:00S 53°48' W 098°06'2110.7 340 / 121004.1 6.5 6.6
2015-May-23 20:00S 54°00' W 098°36'2110.6 350 / 151004.6 6.5 6.7
2015-May-23 18:00S 54°12' W 099°06'18 9.2 360 / 151006.0 6.4 6.2
2015-May-23 16:00S 54°24' W 099°30'2110.6 010 / 141007.3 6.2 6.1
2015-May-23 14:00S 54°36' W 100°00'2110.5 360 / 151008.2 6.0 6.1
2015-May-23 12:00S 54°48' W 100°30'2110.5 350 / 161009.3 5.8 5.5
2015-May-23 10:00S 55°00' W 101°00'2411.9 340 / 161010.8 5.8 5.6
2015-May-23 08:00S 55°12' W 101°36'4210.4 330 / 201011.6 5.8 6.3
2015-May-23 04:00S 55°36' W 102°36'18 9.0 320 / 201012.8 5.7 6.0
2015-May-23 02:00S 55°42' W 103°06'4411.0 320 / 231013.2 5.5 5.4
2015-May-22 22:00S 56°06' W 104°12'2110.3 330 / 251012.6 5.7 5.3
2015-May-22 20:00S 56°18' W 104°42'18 8.8 340 / 261012.4 5.5 5.6
2015-May-22 18:00S 56°24' W 105°12'2010.2 350 / 261012.9 4.9 6.0
2015-May-22 16:00S 56°36' W 105°42'18 8.8 360 / 251013.2 4.2 6.0
2015-May-22 14:00S 56°42' W 106°12'4310.8 360 / 251013.5 4.5 5.8
2015-May-22 10:00S 57°06' W 107°18'2010.2 360 / 231014.8 2.9 4.7
2015-May-22 08:00S 57°12' W 107°54'32710.2 360 / 221014.9 2.4 4.9
2015-May-21 00:00S 59°24' W 117°24'19 9.6 140 / 141009.6 0.1 3.3
2015-May-20 22:00S 59°30' W 118°00'2211.1 140 / 161008.9 0.2 3.2
2015-May-20 20:00S 59°36' W 118°42'19 9.6 150 / 161008.9 -0.2 1.7
2015-May-20 18:00S 59°42' W 119°18'2211.0 150 / 171008.6 -0.3 1.4
2015-May-20 16:00S 59°48' W 120°00'2211.0 160 / 201007.7 0.4 1.2
2015-May-20 14:00S 59°54' W 120°42'2210.9 170 / 181007.1 0.9 2.2
2015-May-20 12:00S 60°00' W 121°24'2210.9 220 / 141007.2 2.4 2.5
2015-May-20 10:00S 60°06' W 122°06'2210.9 270 / 141007.2 3.3 3.2
2015-May-20 08:00S 60°12' W 122°48'4310.8 280 / 161007.6 3.1 3.0
2015-May-20 04:00S 60°24' W 124°12'18 8.9 300 / 201008.9 2.7 3.2
2015-May-20 02:00S 60°24' W 124°48'2210.8 300 / 211010.2 2.4 3.1
2015-May-20 00:00S 60°30' W 125°30'2210.8 310 / 191011.1 1.8 2.1
2015-May-19 22:00S 60°36' W 126°12'2110.3 300 / 211011.9 1.7 1.1
2015-May-19 20:00S 60°36' W 126°54'2110.7 310 / 181012.5 1.3 1.2
2015-May-19 18:00S 60°42' W 127°36'2110.7 310 / 191013.2 1.0 1.1
2015-May-19 16:00S 60°48' W 128°18'2010.2 310 / 191013.9 0.5 1.1
2015-May-19 14:00S 60°48' W 129°00'2110.7 310 / 231014.6 0.2 1.0
2015-May-19 12:00S 60°54' W 129°42'2010.2 310 / 231014.8 0.7 0.9
2015-May-19 10:00S 60°54' W 130°24'2110.6 310 / 251014.7 1.0 0.7
2015-May-19 08:00S 61°00' W 131°06'4110.3 310 / 281014.6 1.4 0.6
2015-May-19 04:00S 61°06' W 132°30'2311.6 320 / 261014.5 1.2 0.9
2015-May-19 02:00S 61°06' W 133°18'2010.1 320 / 251014.3 1.7 0.8
2015-May-19 00:00S 61°06' W 134°00'2110.6 320 / 271014.1 1.3 0.9
2015-May-18 22:00S 61°12' W 134°42'2010.1 320 / 251013.8 1.1 0.9
2015-May-18 20:00S 61°12' W 135°24'2010.1 320 / 241013.1 0.9 0.5
2015-May-18 18:00S 61°12' W 136°06'2010.1 330 / 201012.7 0.8 0.1
2015-May-18 16:00S 61°12' W 136°48'2311.6 350 / 161012.3 0.5 0.6
2015-May-18 14:00S 61°12' W 137°36'2010.1 330 / 141013.0 0.5 0.5
2015-May-18 12:00S 61°12' W 138°18'4010.1 310 / 141012.8 0.2 0.1
2015-May-18 08:00S 61°12' W 139°42'4010.1 290 / 191010.0 0.9 0.2
2015-May-18 04:00S 61°12' W 141°06'2010.1 290 / 221005.4 2.0 0.3
2015-May-18 02:00S 61°12' W 141°48'2311.6 290 / 231003.0 2.6 0.2
2015-May-18 00:00S 61°12' W 142°36'17 8.7 300 / 251000.4 1.7 0.2
2015-May-17 22:00S 61°12' W 143°12'2010.1 310 / 24998.9 0.8 0.4
2015-May-17 20:00S 61°12' W 143°54'2110.6 320 / 22998.1 0.6 0.4
2015-May-17 18:00S 61°06' W 144°36'2010.1 320 / 21997.6 0.5 0.4
2015-May-17 16:00S 61°06' W 145°18'2010.1 320 / 20996.9 0.2 0.3
2015-May-17 14:00S 61°06' W 146°00'2110.6 310 / 21996.4 0.9 0.3
2015-May-17 12:00S 61°00' W 146°42'2010.2 300 / 22995.0 1.3 0.3
2015-May-17 10:00S 61°00' W 147°24'2010.2 310 / 25993.9 1.0 0.3
2015-May-17 08:00S 61°00' W 148°06'38 9.6 320 / 26992.4 1.2 0.3
2015-May-17 04:00S 60°54' W 149°24'2110.7 330 / 31990.0 2.0 0.4
2015-May-17 02:00S 60°48' W 150°06'18 8.8 340 / 32988.4 2.3 0.2
2015-May-17 00:00S 60°48' W 150°42'2110.7 350 / 31988.2 2.0 0.5
2015-May-16 22:00S 60°42' W 151°24'18 8.8 340 / 31989.1 1.9 0.7
2015-May-16 20:00S 60°42' W 152°00'2110.7 350 / 28989.9 2.0 0.6
2015-May-16 18:00S 60°36' W 152°42'2210.8 350 / 28991.0 2.0 0.1
2015-May-16 16:00S 60°30' W 153°24'2210.8 350 / 27991.6 2.1 0.4
2015-May-16 14:00S 60°24' W 154°06'18 8.9 350 / 24992.8 1.5 0.4
2015-May-16 12:00S 60°24' W 154°42'2210.8 350 / 22993.6 1.8 0.3
2015-May-16 10:00S 60°18' W 155°24'2210.8 350 / 21994.4 1.7 0.3
2015-May-16 08:00S 60°12' W 156°06'4110.2 020 / 19994.3 1.1 0.2
2015-May-16 04:00S 60°00' W 157°24'2210.9 050 / 18996.1 1.1 0.8
2015-May-16 02:00S 59°54' W 158°06'16 8.1 060 / 13997.7 1.3 1.1
2015-May-16 00:00S 59°48' W 158°36'18 9.1 030 / 10999.8 1.7 1.4
2015-May-15 22:00S 59°48' W 159°12'2210.9 360 / 121000.5 1.5 1.4
2015-May-15 20:00S 59°36' W 159°48'2211.1 340 / 151001.9 1.6 1.8
2015-May-15 18:00S 59°30' W 160°30'   330 / 141002.9 2.7 1.8

Dump ship's entire track history